sensor_id;sensor_type;location;lat;lon;timestamp;P1;durP1;ratioP1;P2;durP2;ratioP2
18685;SDS011;9473;52.342;13.110;2023-04-21T00:01:57;14.10;;;6.10;;
18685;SDS011;9473;52.342;13.110;2023-04-21T00:04:24;15.25;;;5.70;;
18685;SDS011;9473;52.342;13.110;2023-04-21T00:06:52;10.45;;;5.25;;
18685;SDS011;9473;52.342;13.110;2023-04-21T00:09:19;13.35;;;5.72;;
18685;SDS011;9473;52.342;13.110;2023-04-21T00:11:46;10.13;;;5.80;;
18685;SDS011;9473;52.342;13.110;2023-04-21T00:14:13;10.63;;;5.47;;
18685;SDS011;9473;52.342;13.110;2023-04-21T00:16:41;13.25;;;6.40;;
18685;SDS011;9473;52.342;13.110;2023-04-21T00:19:08;13.20;;;6.07;;
18685;SDS011;9473;52.342;13.110;2023-04-21T00:21:38;14.73;;;6.20;;
18685;SDS011;9473;52.342;13.110;2023-04-21T00:24:05;18.60;;;6.22;;
18685;SDS011;9473;52.342;13.110;2023-04-21T00:26:32;16.40;;;6.28;;
18685;SDS011;9473;52.342;13.110;2023-04-21T00:28:59;17.38;;;5.97;;
18685;SDS011;9473;52.342;13.110;2023-04-21T00:31:26;17.83;;;6.38;;
18685;SDS011;9473;52.342;13.110;2023-04-21T00:33:54;12.25;;;5.78;;
18685;SDS011;9473;52.342;13.110;2023-04-21T00:36:21;17.70;;;6.15;;
18685;SDS011;9473;52.342;13.110;2023-04-21T00:38:52;10.73;;;5.22;;
18685;SDS011;9473;52.342;13.110;2023-04-21T00:41:18;10.38;;;5.22;;
18685;SDS011;9473;52.342;13.110;2023-04-21T00:44:01;11.38;;;6.18;;
18685;SDS011;9473;52.342;13.110;2023-04-21T00:46:28;13.15;;;6.18;;
18685;SDS011;9473;52.342;13.110;2023-04-21T00:48:57;13.38;;;5.47;;
18685;SDS011;9473;52.342;13.110;2023-04-21T00:51:24;12.55;;;6.10;;
18685;SDS011;9473;52.342;13.110;2023-04-21T00:53:51;11.73;;;5.18;;
18685;SDS011;9473;52.342;13.110;2023-04-21T00:56:19;13.05;;;6.25;;
18685;SDS011;9473;52.342;13.110;2023-04-21T00:58:47;11.93;;;5.57;;
18685;SDS011;9473;52.342;13.110;2023-04-21T01:01:14;13.40;;;5.65;;
18685;SDS011;9473;52.342;13.110;2023-04-21T01:03:41;13.75;;;5.35;;
18685;SDS011;9473;52.342;13.110;2023-04-21T01:06:10;15.38;;;6.05;;
18685;SDS011;9473;52.342;13.110;2023-04-21T01:08:37;13.48;;;5.47;;
18685;SDS011;9473;52.342;13.110;2023-04-21T01:11:08;12.55;;;6.15;;
18685;SDS011;9473;52.342;13.110;2023-04-21T01:13:36;15.20;;;5.95;;
18685;SDS011;9473;52.342;13.110;2023-04-21T01:16:03;13.15;;;6.40;;
18685;SDS011;9473;52.342;13.110;2023-04-21T01:18:30;13.27;;;5.82;;
18685;SDS011;9473;52.342;13.110;2023-04-21T01:20:57;10.68;;;5.57;;
18685;SDS011;9473;52.342;13.110;2023-04-21T01:23:26;11.45;;;5.80;;
18685;SDS011;9473;52.342;13.110;2023-04-21T01:25:53;13.65;;;5.32;;
18685;SDS011;9473;52.342;13.110;2023-04-21T01:28:20;14.30;;;6.07;;
18685;SDS011;9473;52.342;13.110;2023-04-21T01:30:47;13.80;;;4.97;;
18685;SDS011;9473;52.342;13.110;2023-04-21T01:33:14;15.18;;;5.97;;
18685;SDS011;9473;52.342;13.110;2023-04-21T01:35:42;14.63;;;6.40;;
18685;SDS011;9473;52.342;13.110;2023-04-21T01:38:08;17.02;;;6.70;;
18685;SDS011;9473;52.342;13.110;2023-04-21T01:40:37;12.77;;;6.60;;
18685;SDS011;9473;52.342;13.110;2023-04-21T01:43:05;13.02;;;6.72;;
18685;SDS011;9473;52.342;13.110;2023-04-21T01:45:33;14.70;;;6.05;;
18685;SDS011;9473;52.342;13.110;2023-04-21T01:48:00;12.70;;;6.15;;
18685;SDS011;9473;52.342;13.110;2023-04-21T01:50:27;19.67;;;6.90;;
18685;SDS011;9473;52.342;13.110;2023-04-21T01:52:53;16.15;;;6.57;;
18685;SDS011;9473;52.342;13.110;2023-04-21T01:55:21;16.23;;;6.65;;
18685;SDS011;9473;52.342;13.110;2023-04-21T01:57:49;14.20;;;6.70;;
18685;SDS011;9473;52.342;13.110;2023-04-21T02:00:16;13.32;;;5.68;;
18685;SDS011;9473;52.342;13.110;2023-04-21T02:02:43;15.88;;;6.53;;
18685;SDS011;9473;52.342;13.110;2023-04-21T02:05:10;16.45;;;7.15;;
18685;SDS011;9473;52.342;13.110;2023-04-21T02:07:36;18.75;;;7.00;;
18685;SDS011;9473;52.342;13.110;2023-04-21T02:10:04;13.93;;;6.63;;
18685;SDS011;9473;52.342;13.110;2023-04-21T02:12:31;17.73;;;7.65;;
18685;SDS011;9473;52.342;13.110;2023-04-21T02:14:59;16.60;;;6.63;;
18685;SDS011;9473;52.342;13.110;2023-04-21T02:17:26;16.38;;;6.97;;
18685;SDS011;9473;52.342;13.110;2023-04-21T02:19:52;18.02;;;8.10;;
18685;SDS011;9473;52.342;13.110;2023-04-21T02:22:19;14.85;;;7.28;;
18685;SDS011;9473;52.342;13.110;2023-04-21T02:24:47;14.32;;;7.45;;
18685;SDS011;9473;52.342;13.110;2023-04-21T02:27:13;11.57;;;6.88;;
18685;SDS011;9473;52.342;13.110;2023-04-21T02:29:40;13.30;;;6.53;;
18685;SDS011;9473;52.342;13.110;2023-04-21T02:32:09;15.82;;;7.18;;
18685;SDS011;9473;52.342;13.110;2023-04-21T02:34:36;15.95;;;7.32;;
18685;SDS011;9473;52.342;13.110;2023-04-21T02:37:03;18.50;;;7.55;;
18685;SDS011;9473;52.342;13.110;2023-04-21T02:39:30;18.75;;;7.15;;
18685;SDS011;9473;52.342;13.110;2023-04-21T02:41:57;15.55;;;7.30;;
18685;SDS011;9473;52.342;13.110;2023-04-21T02:44:24;16.70;;;7.60;;
18685;SDS011;9473;52.342;13.110;2023-04-21T02:46:51;14.02;;;8.15;;
18685;SDS011;9473;52.342;13.110;2023-04-21T02:49:19;16.30;;;6.95;;
18685;SDS011;9473;52.342;13.110;2023-04-21T02:51:46;19.83;;;7.43;;
18685;SDS011;9473;52.342;13.110;2023-04-21T02:54:13;19.90;;;8.25;;
18685;SDS011;9473;52.342;13.110;2023-04-21T02:56:40;14.57;;;7.70;;
18685;SDS011;9473;52.342;13.110;2023-04-21T02:59:07;17.00;;;8.13;;
18685;SDS011;9473;52.342;13.110;2023-04-21T03:01:35;17.58;;;8.15;;
18685;SDS011;9473;52.342;13.110;2023-04-21T03:04:02;14.43;;;6.97;;
18685;SDS011;9473;52.342;13.110;2023-04-21T03:06:30;16.77;;;8.32;;
18685;SDS011;9473;52.342;13.110;2023-04-21T03:08:58;15.20;;;6.57;;
18685;SDS011;9473;52.342;13.110;2023-04-21T03:11:25;16.08;;;7.88;;
18685;SDS011;9473;52.342;13.110;2023-04-21T03:13:52;21.40;;;8.10;;
18685;SDS011;9473;52.342;13.110;2023-04-21T03:16:19;16.23;;;7.63;;
18685;SDS011;9473;52.342;13.110;2023-04-21T03:18:46;19.90;;;8.23;;
18685;SDS011;9473;52.342;13.110;2023-04-21T03:21:13;12.95;;;7.38;;
18685;SDS011;9473;52.342;13.110;2023-04-21T03:23:41;18.70;;;8.48;;
18685;SDS011;9473;52.342;13.110;2023-04-21T03:26:08;17.88;;;7.82;;
18685;SDS011;9473;52.342;13.110;2023-04-21T03:28:36;17.25;;;7.95;;
18685;SDS011;9473;52.342;13.110;2023-04-21T03:31:02;14.43;;;7.65;;
18685;SDS011;9473;52.342;13.110;2023-04-21T03:33:29;16.75;;;8.48;;
18685;SDS011;9473;52.342;13.110;2023-04-21T03:35:56;15.02;;;7.95;;
18685;SDS011;9473;52.342;13.110;2023-04-21T03:38:23;18.27;;;8.45;;
18685;SDS011;9473;52.342;13.110;2023-04-21T03:40:51;18.10;;;8.75;;
18685;SDS011;9473;52.342;13.110;2023-04-21T03:43:18;17.70;;;7.70;;
18685;SDS011;9473;52.342;13.110;2023-04-21T03:45:45;17.60;;;8.88;;
18685;SDS011;9473;52.342;13.110;2023-04-21T03:48:12;18.98;;;8.50;;
18685;SDS011;9473;52.342;13.110;2023-04-21T03:50:39;21.05;;;8.60;;
18685;SDS011;9473;52.342;13.110;2023-04-21T03:53:06;18.00;;;8.90;;
18685;SDS011;9473;52.342;13.110;2023-04-21T03:55:33;16.38;;;8.23;;
18685;SDS011;9473;52.342;13.110;2023-04-21T03:58:01;17.08;;;8.23;;
18685;SDS011;9473;52.342;13.110;2023-04-21T04:00:28;14.57;;;7.93;;
18685;SDS011;9473;52.342;13.110;2023-04-21T04:02:55;18.15;;;8.73;;
18685;SDS011;9473;52.342;13.110;2023-04-21T04:05:22;19.35;;;8.95;;
18685;SDS011;9473;52.342;13.110;2023-04-21T04:07:48;16.17;;;8.73;;
18685;SDS011;9473;52.342;13.110;2023-04-21T04:10:15;18.65;;;8.70;;
18685;SDS011;9473;52.342;13.110;2023-04-21T04:12:42;18.13;;;8.40;;
18685;SDS011;9473;52.342;13.110;2023-04-21T04:15:11;19.08;;;9.10;;
18685;SDS011;9473;52.342;13.110;2023-04-21T04:17:38;18.73;;;8.88;;
18685;SDS011;9473;52.342;13.110;2023-04-21T04:20:05;23.42;;;9.57;;
18685;SDS011;9473;52.342;13.110;2023-04-21T04:22:32;18.00;;;8.65;;
18685;SDS011;9473;52.342;13.110;2023-04-21T04:24:59;23.75;;;9.02;;
18685;SDS011;9473;52.342;13.110;2023-04-21T04:27:26;15.80;;;8.75;;
18685;SDS011;9473;52.342;13.110;2023-04-21T04:29:53;16.30;;;8.60;;
18685;SDS011;9473;52.342;13.110;2023-04-21T04:32:22;21.30;;;8.93;;
18685;SDS011;9473;52.342;13.110;2023-04-21T04:34:52;17.92;;;9.60;;
18685;SDS011;9473;52.342;13.110;2023-04-21T04:37:19;20.55;;;9.23;;
18685;SDS011;9473;52.342;13.110;2023-04-21T04:39:46;18.85;;;8.98;;
18685;SDS011;9473;52.342;13.110;2023-04-21T04:42:14;18.23;;;9.18;;
18685;SDS011;9473;52.342;13.110;2023-04-21T04:44:41;18.27;;;9.48;;
18685;SDS011;9473;52.342;13.110;2023-04-21T04:47:08;16.88;;;8.10;;
18685;SDS011;9473;52.342;13.110;2023-04-21T04:49:37;17.20;;;9.15;;
18685;SDS011;9473;52.342;13.110;2023-04-21T04:52:04;18.15;;;9.30;;
18685;SDS011;9473;52.342;13.110;2023-04-21T04:54:32;23.17;;;9.48;;
18685;SDS011;9473;52.342;13.110;2023-04-21T04:56:59;15.32;;;8.45;;
18685;SDS011;9473;52.342;13.110;2023-04-21T04:59:26;17.83;;;9.63;;
18685;SDS011;9473;52.342;13.110;2023-04-21T05:01:54;17.77;;;9.18;;
18685;SDS011;9473;52.342;13.110;2023-04-21T05:04:21;18.27;;;9.57;;
18685;SDS011;9473;52.342;13.110;2023-04-21T05:06:49;18.00;;;9.35;;
18685;SDS011;9473;52.342;13.110;2023-04-21T05:09:16;20.98;;;9.20;;
18685;SDS011;9473;52.342;13.110;2023-04-21T05:11:43;17.20;;;9.43;;
18685;SDS011;9473;52.342;13.110;2023-04-21T05:14:10;17.42;;;9.23;;
18685;SDS011;9473;52.342;13.110;2023-04-21T05:16:37;18.33;;;9.35;;
18685;SDS011;9473;52.342;13.110;2023-04-21T05:19:04;20.85;;;9.10;;
18685;SDS011;9473;52.342;13.110;2023-04-21T05:21:31;19.25;;;8.85;;
18685;SDS011;9473;52.342;13.110;2023-04-21T05:23:59;17.40;;;8.48;;
18685;SDS011;9473;52.342;13.110;2023-04-21T05:26:26;17.05;;;9.25;;
18685;SDS011;9473;52.342;13.110;2023-04-21T05:28:53;15.52;;;9.05;;
18685;SDS011;9473;52.342;13.110;2023-04-21T05:31:21;21.83;;;9.30;;
18685;SDS011;9473;52.342;13.110;2023-04-21T05:33:48;16.92;;;8.05;;
18685;SDS011;9473;52.342;13.110;2023-04-21T05:36:15;19.63;;;8.95;;
18685;SDS011;9473;52.342;13.110;2023-04-21T05:38:44;18.90;;;10.27;;
18685;SDS011;9473;52.342;13.110;2023-04-21T05:41:12;15.27;;;8.77;;
18685;SDS011;9473;52.342;13.110;2023-04-21T05:43:39;20.70;;;9.15;;
18685;SDS011;9473;52.342;13.110;2023-04-21T05:46:07;16.70;;;8.40;;
18685;SDS011;9473;52.342;13.110;2023-04-21T05:48:34;17.52;;;9.35;;
18685;SDS011;9473;52.342;13.110;2023-04-21T05:51:06;16.38;;;8.55;;
18685;SDS011;9473;52.342;13.110;2023-04-21T05:53:33;22.10;;;9.30;;
18685;SDS011;9473;52.342;13.110;2023-04-21T05:56:00;21.77;;;9.68;;
18685;SDS011;9473;52.342;13.110;2023-04-21T05:58:28;19.77;;;9.20;;
18685;SDS011;9473;52.342;13.110;2023-04-21T06:00:55;18.95;;;8.85;;
18685;SDS011;9473;52.342;13.110;2023-04-21T06:03:22;19.50;;;9.88;;
18685;SDS011;9473;52.342;13.110;2023-04-21T06:05:52;19.42;;;9.48;;
18685;SDS011;9473;52.342;13.110;2023-04-21T06:08:19;16.80;;;9.32;;
18685;SDS011;9473;52.342;13.110;2023-04-21T06:10:46;21.00;;;9.57;;
18685;SDS011;9473;52.342;13.110;2023-04-21T06:13:12;17.45;;;9.63;;
18685;SDS011;9473;52.342;13.110;2023-04-21T06:15:41;17.58;;;9.57;;
18685;SDS011;9473;52.342;13.110;2023-04-21T06:18:08;19.60;;;9.75;;
18685;SDS011;9473;52.342;13.110;2023-04-21T06:20:34;18.33;;;9.25;;
18685;SDS011;9473;52.342;13.110;2023-04-21T06:23:02;15.52;;;8.55;;
18685;SDS011;9473;52.342;13.110;2023-04-21T06:25:29;16.45;;;9.30;;
18685;SDS011;9473;52.342;13.110;2023-04-21T06:27:56;17.70;;;9.73;;
18685;SDS011;9473;52.342;13.110;2023-04-21T06:30:23;19.30;;;9.73;;
18685;SDS011;9473;52.342;13.110;2023-04-21T06:32:51;21.90;;;9.85;;
18685;SDS011;9473;52.342;13.110;2023-04-21T06:35:18;14.70;;;8.90;;
18685;SDS011;9473;52.342;13.110;2023-04-21T06:37:45;19.10;;;9.75;;
18685;SDS011;9473;52.342;13.110;2023-04-21T06:40:12;19.38;;;9.60;;
18685;SDS011;9473;52.342;13.110;2023-04-21T06:42:40;22.15;;;10.52;;
18685;SDS011;9473;52.342;13.110;2023-04-21T06:45:07;17.83;;;9.80;;
18685;SDS011;9473;52.342;13.110;2023-04-21T06:47:34;19.60;;;10.00;;
18685;SDS011;9473;52.342;13.110;2023-04-21T06:50:03;21.48;;;10.07;;
18685;SDS011;9473;52.342;13.110;2023-04-21T06:52:31;17.30;;;8.98;;
18685;SDS011;9473;52.342;13.110;2023-04-21T06:54:58;18.95;;;8.93;;
18685;SDS011;9473;52.342;13.110;2023-04-21T06:57:25;18.77;;;9.50;;
18685;SDS011;9473;52.342;13.110;2023-04-21T06:59:52;20.23;;;9.35;;
18685;SDS011;9473;52.342;13.110;2023-04-21T07:02:19;17.55;;;10.00;;
18685;SDS011;9473;52.342;13.110;2023-04-21T07:04:45;15.32;;;9.43;;
18685;SDS011;9473;52.342;13.110;2023-04-21T07:07:14;16.42;;;8.85;;
18685;SDS011;9473;52.342;13.110;2023-04-21T07:09:40;16.00;;;9.85;;
18685;SDS011;9473;52.342;13.110;2023-04-21T07:12:11;28.95;;;11.95;;
18685;SDS011;9473;52.342;13.110;2023-04-21T07:14:38;16.42;;;9.00;;
18685;SDS011;9473;52.342;13.110;2023-04-21T07:17:05;21.05;;;9.95;;
18685;SDS011;9473;52.342;13.110;2023-04-21T07:19:32;20.00;;;9.18;;
18685;SDS011;9473;52.342;13.110;2023-04-21T07:21:59;17.35;;;9.93;;
18685;SDS011;9473;52.342;13.110;2023-04-21T07:24:27;15.25;;;8.85;;
18685;SDS011;9473;52.342;13.110;2023-04-21T07:26:54;18.65;;;9.57;;
18685;SDS011;9473;52.342;13.110;2023-04-21T07:29:21;16.65;;;9.55;;
18685;SDS011;9473;52.342;13.110;2023-04-21T07:31:48;17.48;;;9.02;;
18685;SDS011;9473;52.342;13.110;2023-04-21T07:34:15;17.98;;;9.63;;
18685;SDS011;9473;52.342;13.110;2023-04-21T07:36:42;15.80;;;8.68;;
18685;SDS011;9473;52.342;13.110;2023-04-21T07:39:09;14.85;;;8.68;;
18685;SDS011;9473;52.342;13.110;2023-04-21T07:41:38;17.00;;;8.70;;
18685;SDS011;9473;52.342;13.110;2023-04-21T07:44:05;17.95;;;9.43;;
18685;SDS011;9473;52.342;13.110;2023-04-21T07:46:32;18.25;;;8.77;;
18685;SDS011;9473;52.342;13.110;2023-04-21T07:48:59;15.65;;;8.57;;
18685;SDS011;9473;52.342;13.110;2023-04-21T07:51:26;15.35;;;8.73;;
18685;SDS011;9473;52.342;13.110;2023-04-21T07:53:53;18.88;;;9.70;;
18685;SDS011;9473;52.342;13.110;2023-04-21T07:56:20;17.38;;;8.50;;
18685;SDS011;9473;52.342;13.110;2023-04-21T07:58:48;18.88;;;8.70;;
18685;SDS011;9473;52.342;13.110;2023-04-21T08:01:15;17.85;;;9.02;;
18685;SDS011;9473;52.342;13.110;2023-04-21T08:03:42;16.83;;;8.38;;
18685;SDS011;9473;52.342;13.110;2023-04-21T08:06:09;15.20;;;8.82;;
18685;SDS011;9473;52.342;13.110;2023-04-21T08:08:36;14.85;;;8.45;;
18685;SDS011;9473;52.342;13.110;2023-04-21T08:11:03;15.30;;;8.32;;
18685;SDS011;9473;52.342;13.110;2023-04-21T08:13:30;15.50;;;8.32;;
18685;SDS011;9473;52.342;13.110;2023-04-21T08:15:58;12.32;;;8.20;;
18685;SDS011;9473;52.342;13.110;2023-04-21T08:18:25;15.60;;;8.63;;
18685;SDS011;9473;52.342;13.110;2023-04-21T08:20:52;16.02;;;8.10;;
18685;SDS011;9473;52.342;13.110;2023-04-21T08:23:21;17.20;;;8.43;;
18685;SDS011;9473;52.342;13.110;2023-04-21T08:25:48;16.63;;;8.45;;
18685;SDS011;9473;52.342;13.110;2023-04-21T08:28:15;15.10;;;8.38;;
18685;SDS011;9473;52.342;13.110;2023-04-21T08:30:42;11.18;;;7.15;;
18685;SDS011;9473;52.342;13.110;2023-04-21T08:33:10;15.40;;;7.75;;
18685;SDS011;9473;52.342;13.110;2023-04-21T08:35:38;13.00;;;7.80;;
18685;SDS011;9473;52.342;13.110;2023-04-21T08:38:05;16.25;;;8.48;;
18685;SDS011;9473;52.342;13.110;2023-04-21T08:40:33;15.07;;;7.93;;
18685;SDS011;9473;52.342;13.110;2023-04-21T08:43:01;12.80;;;7.35;;
18685;SDS011;9473;52.342;13.110;2023-04-21T08:45:29;15.55;;;8.25;;
18685;SDS011;9473;52.342;13.110;2023-04-21T08:47:56;11.48;;;7.05;;
18685;SDS011;9473;52.342;13.110;2023-04-21T08:50:26;15.65;;;7.65;;
18685;SDS011;9473;52.342;13.110;2023-04-21T08:52:54;13.48;;;7.03;;
18685;SDS011;9473;52.342;13.110;2023-04-21T08:55:22;15.25;;;7.15;;
18685;SDS011;9473;52.342;13.110;2023-04-21T08:57:51;12.93;;;6.63;;
18685;SDS011;9473;52.342;13.110;2023-04-21T09:00:18;12.15;;;6.95;;
18685;SDS011;9473;52.342;13.110;2023-04-21T09:02:52;10.95;;;6.72;;
18685;SDS011;9473;52.342;13.110;2023-04-21T09:05:20;12.45;;;6.85;;
18685;SDS011;9473;52.342;13.110;2023-04-21T09:07:49;12.32;;;6.88;;
18685;SDS011;9473;52.342;13.110;2023-04-21T09:10:20;13.25;;;6.82;;
18685;SDS011;9473;52.342;13.110;2023-04-21T09:12:49;12.93;;;6.82;;
18685;SDS011;9473;52.342;13.110;2023-04-21T09:15:16;14.13;;;7.20;;
18685;SDS011;9473;52.342;13.110;2023-04-21T09:17:43;12.82;;;7.32;;
18685;SDS011;9473;52.342;13.110;2023-04-21T09:20:12;12.27;;;6.70;;
18685;SDS011;9473;52.342;13.110;2023-04-21T09:22:39;11.23;;;6.47;;
18685;SDS011;9473;52.342;13.110;2023-04-21T09:25:08;11.23;;;6.53;;
18685;SDS011;9473;52.342;13.110;2023-04-21T09:27:35;14.30;;;6.80;;
18685;SDS011;9473;52.342;13.110;2023-04-21T09:30:03;13.80;;;6.78;;
18685;SDS011;9473;52.342;13.110;2023-04-21T09:32:34;11.32;;;6.47;;
18685;SDS011;9473;52.342;13.110;2023-04-21T09:35:03;11.25;;;6.40;;
18685;SDS011;9473;52.342;13.110;2023-04-21T09:37:30;10.30;;;6.03;;
18685;SDS011;9473;52.342;13.110;2023-04-21T09:39:58;11.10;;;5.85;;
18685;SDS011;9473;52.342;13.110;2023-04-21T09:42:28;14.52;;;6.07;;
18685;SDS011;9473;52.342;13.110;2023-04-21T09:44:55;11.68;;;6.28;;
18685;SDS011;9473;52.342;13.110;2023-04-21T09:47:22;12.15;;;6.47;;
18685;SDS011;9473;52.342;13.110;2023-04-21T09:49:50;13.25;;;6.10;;
18685;SDS011;9473;52.342;13.110;2023-04-21T09:52:18;8.90;;;5.70;;
18685;SDS011;9473;52.342;13.110;2023-04-21T09:54:47;13.05;;;6.32;;
18685;SDS011;9473;52.342;13.110;2023-04-21T09:57:16;11.82;;;6.82;;
18685;SDS011;9473;52.342;13.110;2023-04-21T09:59:47;9.70;;;5.68;;
18685;SDS011;9473;52.342;13.110;2023-04-21T10:02:16;10.48;;;5.45;;
18685;SDS011;9473;52.342;13.110;2023-04-21T10:04:44;13.00;;;6.10;;
18685;SDS011;9473;52.342;13.110;2023-04-21T10:07:11;13.52;;;6.00;;
18685;SDS011;9473;52.342;13.110;2023-04-21T10:09:39;11.70;;;6.40;;
18685;SDS011;9473;52.342;13.110;2023-04-21T10:12:07;10.35;;;6.30;;
18685;SDS011;9473;52.342;13.110;2023-04-21T10:14:35;13.35;;;5.88;;
18685;SDS011;9473;52.342;13.110;2023-04-21T10:17:04;12.05;;;6.00;;
18685;SDS011;9473;52.342;13.110;2023-04-21T10:19:31;12.75;;;6.05;;
18685;SDS011;9473;52.342;13.110;2023-04-21T10:22:00;10.95;;;6.18;;
18685;SDS011;9473;52.342;13.110;2023-04-21T10:24:27;12.85;;;5.70;;
18685;SDS011;9473;52.342;13.110;2023-04-21T10:26:55;12.68;;;6.28;;
18685;SDS011;9473;52.342;13.110;2023-04-21T10:29:29;11.85;;;6.22;;
18685;SDS011;9473;52.342;13.110;2023-04-21T10:31:55;11.70;;;5.63;;
18685;SDS011;9473;52.342;13.110;2023-04-21T10:34:33;12.15;;;6.10;;
18685;SDS011;9473;52.342;13.110;2023-04-21T10:37:08;15.63;;;6.03;;
18685;SDS011;9473;52.342;13.110;2023-04-21T10:39:42;9.95;;;5.90;;
18685;SDS011;9473;52.342;13.110;2023-04-21T10:45:04;10.45;;;6.03;;
18685;SDS011;9473;52.342;13.110;2023-04-21T10:47:34;10.35;;;5.85;;
18685;SDS011;9473;52.342;13.110;2023-04-21T10:50:10;9.48;;;5.65;;
18685;SDS011;9473;52.342;13.110;2023-04-21T10:52:37;9.88;;;5.82;;
18685;SDS011;9473;52.342;13.110;2023-04-21T10:55:05;11.63;;;5.70;;
18685;SDS011;9473;52.342;13.110;2023-04-21T10:57:34;10.95;;;6.03;;
18685;SDS011;9473;52.342;13.110;2023-04-21T11:00:02;8.55;;;5.13;;
18685;SDS011;9473;52.342;13.110;2023-04-21T11:02:30;13.30;;;6.15;;
18685;SDS011;9473;52.342;13.110;2023-04-21T11:04:58;11.68;;;5.70;;
18685;SDS011;9473;52.342;13.110;2023-04-21T11:07:27;11.00;;;5.82;;
18685;SDS011;9473;52.342;13.110;2023-04-21T11:09:55;11.25;;;6.03;;
18685;SDS011;9473;52.342;13.110;2023-04-21T11:12:25;11.65;;;5.55;;
18685;SDS011;9473;52.342;13.110;2023-04-21T11:14:53;10.10;;;5.57;;
18685;SDS011;9473;52.342;13.110;2023-04-21T11:17:19;8.82;;;5.80;;
18685;SDS011;9473;52.342;13.110;2023-04-21T11:19:48;11.27;;;5.70;;
18685;SDS011;9473;52.342;13.110;2023-04-21T11:22:15;8.70;;;5.30;;
18685;SDS011;9473;52.342;13.110;2023-04-21T11:24:44;12.48;;;5.18;;
18685;SDS011;9473;52.342;13.110;2023-04-21T11:27:11;11.38;;;5.50;;
18685;SDS011;9473;52.342;13.110;2023-04-21T11:29:39;11.70;;;5.43;;
18685;SDS011;9473;52.342;13.110;2023-04-21T11:32:06;11.40;;;5.75;;
18685;SDS011;9473;52.342;13.110;2023-04-21T11:34:35;7.78;;;5.10;;
18685;SDS011;9473;52.342;13.110;2023-04-21T11:37:02;10.18;;;5.40;;
18685;SDS011;9473;52.342;13.110;2023-04-21T11:39:30;9.07;;;5.70;;
18685;SDS011;9473;52.342;13.110;2023-04-21T11:41:58;10.25;;;5.68;;
18685;SDS011;9473;52.342;13.110;2023-04-21T11:44:30;9.27;;;5.45;;
18685;SDS011;9473;52.342;13.110;2023-04-21T11:46:57;9.23;;;5.32;;
18685;SDS011;9473;52.342;13.110;2023-04-21T11:49:24;12.32;;;5.32;;
18685;SDS011;9473;52.342;13.110;2023-04-21T11:51:53;6.45;;;4.90;;
18685;SDS011;9473;52.342;13.110;2023-04-21T11:54:20;7.53;;;5.40;;
18685;SDS011;9473;52.342;13.110;2023-04-21T11:56:48;8.77;;;5.70;;
18685;SDS011;9473;52.342;13.110;2023-04-21T11:59:17;10.15;;;5.45;;
18685;SDS011;9473;52.342;13.110;2023-04-21T12:01:47;6.95;;;5.13;;
18685;SDS011;9473;52.342;13.110;2023-04-21T12:04:14;7.85;;;4.78;;
18685;SDS011;9473;52.342;13.110;2023-04-21T12:06:42;8.18;;;5.50;;
18685;SDS011;9473;52.342;13.110;2023-04-21T12:09:14;8.57;;;5.05;;
18685;SDS011;9473;52.342;13.110;2023-04-21T12:11:42;10.75;;;5.32;;
18685;SDS011;9473;52.342;13.110;2023-04-21T12:14:09;9.75;;;4.82;;
18685;SDS011;9473;52.342;13.110;2023-04-21T12:16:37;9.10;;;5.50;;
18685;SDS011;9473;52.342;13.110;2023-04-21T12:19:04;9.88;;;5.18;;
18685;SDS011;9473;52.342;13.110;2023-04-21T12:21:31;7.88;;;4.80;;
18685;SDS011;9473;52.342;13.110;2023-04-21T12:23:58;8.25;;;4.68;;
18685;SDS011;9473;52.342;13.110;2023-04-21T12:26:24;9.13;;;5.35;;
18685;SDS011;9473;52.342;13.110;2023-04-21T12:28:52;12.27;;;5.60;;
18685;SDS011;9473;52.342;13.110;2023-04-21T12:31:19;8.30;;;5.43;;
18685;SDS011;9473;52.342;13.110;2023-04-21T12:33:47;10.45;;;5.18;;
18685;SDS011;9473;52.342;13.110;2023-04-21T12:36:14;9.68;;;5.18;;
18685;SDS011;9473;52.342;13.110;2023-04-21T12:38:41;8.30;;;5.25;;
18685;SDS011;9473;52.342;13.110;2023-04-21T12:41:08;10.82;;;5.85;;
18685;SDS011;9473;52.342;13.110;2023-04-21T12:43:35;7.90;;;5.50;;
18685;SDS011;9473;52.342;13.110;2023-04-21T12:46:02;9.93;;;5.68;;
18685;SDS011;9473;52.342;13.110;2023-04-21T12:48:29;9.52;;;5.80;;
18685;SDS011;9473;52.342;13.110;2023-04-21T12:50:57;12.02;;;6.07;;
18685;SDS011;9473;52.342;13.110;2023-04-21T12:53:24;9.48;;;6.28;;
18685;SDS011;9473;52.342;13.110;2023-04-21T12:55:51;13.65;;;6.57;;
18685;SDS011;9473;52.342;13.110;2023-04-21T12:58:18;10.48;;;5.53;;
18685;SDS011;9473;52.342;13.110;2023-04-21T13:00:45;7.80;;;5.65;;
18685;SDS011;9473;52.342;13.110;2023-04-21T13:03:12;6.90;;;5.00;;
18685;SDS011;9473;52.342;13.110;2023-04-21T13:05:39;8.82;;;5.50;;
18685;SDS011;9473;52.342;13.110;2023-04-21T13:08:07;10.80;;;6.32;;
18685;SDS011;9473;52.342;13.110;2023-04-21T13:10:34;10.10;;;5.93;;
18685;SDS011;9473;52.342;13.110;2023-04-21T13:13:01;11.75;;;6.20;;
18685;SDS011;9473;52.342;13.110;2023-04-21T13:15:28;12.00;;;6.38;;
18685;SDS011;9473;52.342;13.110;2023-04-21T13:17:55;13.27;;;6.53;;
18685;SDS011;9473;52.342;13.110;2023-04-21T13:20:22;8.27;;;5.70;;
18685;SDS011;9473;52.342;13.110;2023-04-21T13:22:49;11.77;;;5.72;;
18685;SDS011;9473;52.342;13.110;2023-04-21T13:25:17;9.73;;;6.07;;
18685;SDS011;9473;52.342;13.110;2023-04-21T13:27:44;9.07;;;6.00;;
18685;SDS011;9473;52.342;13.110;2023-04-21T13:30:12;10.80;;;5.20;;
18685;SDS011;9473;52.342;13.110;2023-04-21T13:32:39;7.82;;;5.63;;
18685;SDS011;9473;52.342;13.110;2023-04-21T13:35:07;9.30;;;5.50;;
18685;SDS011;9473;52.342;13.110;2023-04-21T13:37:34;11.00;;;5.07;;
18685;SDS011;9473;52.342;13.110;2023-04-21T13:40:01;12.05;;;5.43;;
18685;SDS011;9473;52.342;13.110;2023-04-21T13:42:30;9.70;;;5.70;;
18685;SDS011;9473;52.342;13.110;2023-04-21T13:44:57;8.77;;;5.68;;
18685;SDS011;9473;52.342;13.110;2023-04-21T13:47:26;9.60;;;4.93;;
18685;SDS011;9473;52.342;13.110;2023-04-21T13:49:53;8.45;;;4.72;;
18685;SDS011;9473;52.342;13.110;2023-04-21T13:52:20;12.88;;;4.93;;
18685;SDS011;9473;52.342;13.110;2023-04-21T13:54:47;8.95;;;5.05;;
18685;SDS011;9473;52.342;13.110;2023-04-21T13:57:14;8.77;;;5.07;;
18685;SDS011;9473;52.342;13.110;2023-04-21T13:59:42;8.40;;;5.25;;
18685;SDS011;9473;52.342;13.110;2023-04-21T14:02:09;10.10;;;5.38;;
18685;SDS011;9473;52.342;13.110;2023-04-21T14:04:36;8.15;;;5.15;;
18685;SDS011;9473;52.342;13.110;2023-04-21T14:07:03;12.15;;;5.45;;
18685;SDS011;9473;52.342;13.110;2023-04-21T14:09:31;7.82;;;5.25;;
18685;SDS011;9473;52.342;13.110;2023-04-21T14:11:58;7.50;;;4.88;;
18685;SDS011;9473;52.342;13.110;2023-04-21T14:14:26;6.95;;;4.95;;
18685;SDS011;9473;52.342;13.110;2023-04-21T14:16:54;8.50;;;5.13;;
18685;SDS011;9473;52.342;13.110;2023-04-21T14:19:22;8.48;;;5.30;;
18685;SDS011;9473;52.342;13.110;2023-04-21T14:21:48;8.70;;;5.10;;
18685;SDS011;9473;52.342;13.110;2023-04-21T14:24:15;7.53;;;5.18;;
18685;SDS011;9473;52.342;13.110;2023-04-21T14:26:42;8.30;;;4.88;;
18685;SDS011;9473;52.342;13.110;2023-04-21T14:29:09;5.90;;;4.30;;
18685;SDS011;9473;52.342;13.110;2023-04-21T14:31:36;8.02;;;4.47;;
18685;SDS011;9473;52.342;13.110;2023-04-21T14:34:04;7.05;;;4.45;;
18685;SDS011;9473;52.342;13.110;2023-04-21T14:36:31;6.82;;;4.60;;
18685;SDS011;9473;52.342;13.110;2023-04-21T14:38:59;8.20;;;4.70;;
18685;SDS011;9473;52.342;13.110;2023-04-21T14:41:26;7.65;;;5.13;;